Terminal Aerodrome Forecast
Issued by NWS

Home | Current Version | Previous Version | Text Only | Print | Product List | Glossary On
Versions: 1 2 3 4 5 6 7 8 9 10 11 12 13 14 15 16 17
000
FTUS46 KSGX 250520
TAFSNA
TAF
KSNA 250520Z 2506/2606 VRB05KT P6SM BKN025 BKN040
      TEMPO 2512/2516 -SHRA BKN020
     FM251700 22011KT P6SM SCT025 BKN035
     FM260200 VRB05KT P6SM SCT020 SCT035
     FM260500 VRB05KT P6SM BKN020=

USA.gov is the U.S. government's official web portal to all federal, state and local government web resources and services.